sensor_id;sensor_type;location;lat;lon;timestamp;P1;durP1;ratioP1;P2;durP2;ratioP2
4389;SDS011;2209;48.982;8.406;2023-06-22T00:02:13;3.83;;;3.53;;
4389;SDS011;2209;48.982;8.406;2023-06-22T00:04:35;3.60;;;3.30;;
4389;SDS011;2209;48.982;8.406;2023-06-22T00:06:57;11.43;;;5.33;;
4389;SDS011;2209;48.982;8.406;2023-06-22T00:09:19;6.63;;;4.67;;
4389;SDS011;2209;48.982;8.406;2023-06-22T00:11:41;5.27;;;4.70;;
4389;SDS011;2209;48.982;8.406;2023-06-22T00:14:03;4.47;;;3.97;;
4389;SDS011;2209;48.982;8.406;2023-06-22T00:16:26;5.30;;;4.80;;
4389;SDS011;2209;48.982;8.406;2023-06-22T00:18:49;5.70;;;5.20;;
4389;SDS011;2209;48.982;8.406;2023-06-22T00:21:11;4.20;;;3.80;;
4389;SDS011;2209;48.982;8.406;2023-06-22T00:23:33;5.57;;;5.03;;
4389;SDS011;2209;48.982;8.406;2023-06-22T00:25:55;4.83;;;4.30;;
4389;SDS011;2209;48.982;8.406;2023-06-22T00:28:17;5.10;;;4.40;;
4389;SDS011;2209;48.982;8.406;2023-06-22T00:30:39;5.80;;;5.30;;
4389;SDS011;2209;48.982;8.406;2023-06-22T00:33:01;5.40;;;4.90;;
4389;SDS011;2209;48.982;8.406;2023-06-22T00:35:25;5.20;;;4.80;;
4389;SDS011;2209;48.982;8.406;2023-06-22T00:37:49;4.93;;;4.43;;
4389;SDS011;2209;48.982;8.406;2023-06-22T00:40:12;6.70;;;6.00;;
4389;SDS011;2209;48.982;8.406;2023-06-22T00:42:35;7.03;;;4.80;;
4389;SDS011;2209;48.982;8.406;2023-06-22T00:44:57;5.33;;;4.83;;
4389;SDS011;2209;48.982;8.406;2023-06-22T00:47:19;7.17;;;4.47;;
4389;SDS011;2209;48.982;8.406;2023-06-22T00:49:41;5.53;;;5.00;;
4389;SDS011;2209;48.982;8.406;2023-06-22T00:52:05;6.67;;;5.40;;
4389;SDS011;2209;48.982;8.406;2023-06-22T00:54:29;8.60;;;6.00;;
4389;SDS011;2209;48.982;8.406;2023-06-22T00:56:51;9.70;;;5.50;;
4389;SDS011;2209;48.982;8.406;2023-06-22T00:59:16;5.47;;;4.97;;
4389;SDS011;2209;48.982;8.406;2023-06-22T01:01:38;6.93;;;4.87;;
4389;SDS011;2209;48.982;8.406;2023-06-22T01:04:01;11.30;;;5.47;;
4389;SDS011;2209;48.982;8.406;2023-06-22T01:06:26;6.60;;;4.83;;
4389;SDS011;2209;48.982;8.406;2023-06-22T01:09:02;5.17;;;4.77;;
4389;SDS011;2209;48.982;8.406;2023-06-22T01:11:31;5.13;;;4.30;;
4389;SDS011;2209;48.982;8.406;2023-06-22T01:13:59;5.33;;;4.53;;
4389;SDS011;2209;48.982;8.406;2023-06-22T01:16:27;6.23;;;4.53;;
4389;SDS011;2209;48.982;8.406;2023-06-22T01:18:52;5.93;;;5.30;;
4389;SDS011;2209;48.982;8.406;2023-06-22T01:21:17;6.00;;;4.80;;
4389;SDS011;2209;48.982;8.406;2023-06-22T01:23:49;5.20;;;4.70;;
4389;SDS011;2209;48.982;8.406;2023-06-22T01:26:22;5.07;;;4.20;;
4389;SDS011;2209;48.982;8.406;2023-06-22T01:28:53;5.60;;;4.40;;
4389;SDS011;2209;48.982;8.406;2023-06-22T01:31:17;6.50;;;4.70;;
4389;SDS011;2209;48.982;8.406;2023-06-22T01:33:42;5.07;;;4.40;;
4389;SDS011;2209;48.982;8.406;2023-06-22T01:36:05;5.40;;;4.00;;
4389;SDS011;2209;48.982;8.406;2023-06-22T01:38:28;7.80;;;5.30;;
4389;SDS011;2209;48.982;8.406;2023-06-22T01:40:51;6.30;;;5.50;;
4389;SDS011;2209;48.982;8.406;2023-06-22T01:43:14;4.93;;;4.43;;
4389;SDS011;2209;48.982;8.406;2023-06-22T01:45:38;6.07;;;4.87;;
4389;SDS011;2209;48.982;8.406;2023-06-22T01:48:00;5.63;;;5.10;;
4389;SDS011;2209;48.982;8.406;2023-06-22T01:50:23;5.30;;;4.90;;
4389;SDS011;2209;48.982;8.406;2023-06-22T01:52:45;7.33;;;5.17;;
4389;SDS011;2209;48.982;8.406;2023-06-22T01:55:07;8.50;;;5.10;;
4389;SDS011;2209;48.982;8.406;2023-06-22T01:57:30;10.10;;;5.80;;
4389;SDS011;2209;48.982;8.406;2023-06-22T01:59:53;7.03;;;5.10;;
4389;SDS011;2209;48.982;8.406;2023-06-22T02:02:22;5.73;;;5.23;;
4389;SDS011;2209;48.982;8.406;2023-06-22T02:04:51;6.00;;;5.40;;
4389;SDS011;2209;48.982;8.406;2023-06-22T02:07:22;10.80;;;5.50;;
4389;SDS011;2209;48.982;8.406;2023-06-22T02:09:48;7.83;;;5.53;;
4389;SDS011;2209;48.982;8.406;2023-06-22T02:12:17;5.00;;;4.50;;
4389;SDS011;2209;48.982;8.406;2023-06-22T02:14:41;5.80;;;5.20;;
4389;SDS011;2209;48.982;8.406;2023-06-22T02:17:03;8.67;;;5.40;;
4389;SDS011;2209;48.982;8.406;2023-06-22T02:19:29;5.90;;;5.30;;
4389;SDS011;2209;48.982;8.406;2023-06-22T02:21:53;6.93;;;5.00;;
4389;SDS011;2209;48.982;8.406;2023-06-22T02:24:15;5.83;;;5.27;;
4389;SDS011;2209;48.982;8.406;2023-06-22T02:26:37;8.57;;;5.03;;
4389;SDS011;2209;48.982;8.406;2023-06-22T02:29:02;8.30;;;4.53;;
4389;SDS011;2209;48.982;8.406;2023-06-22T02:31:24;5.13;;;4.63;;
4389;SDS011;2209;48.982;8.406;2023-06-22T02:33:50;5.60;;;5.10;;
4389;SDS011;2209;48.982;8.406;2023-06-22T02:36:13;5.97;;;5.43;;
4389;SDS011;2209;48.982;8.406;2023-06-22T02:38:36;6.70;;;5.33;;
4389;SDS011;2209;48.982;8.406;2023-06-22T02:40:58;5.70;;;4.90;;
4389;SDS011;2209;48.982;8.406;2023-06-22T02:43:20;6.90;;;5.73;;
4389;SDS011;2209;48.982;8.406;2023-06-22T02:45:42;5.87;;;5.20;;
4389;SDS011;2209;48.982;8.406;2023-06-22T02:48:04;6.43;;;4.40;;
4389;SDS011;2209;48.982;8.406;2023-06-22T02:50:26;6.77;;;5.67;;
4389;SDS011;2209;48.982;8.406;2023-06-22T02:52:50;6.10;;;5.50;;
4389;SDS011;2209;48.982;8.406;2023-06-22T02:55:12;7.40;;;4.70;;
4389;SDS011;2209;48.982;8.406;2023-06-22T02:57:34;6.13;;;5.57;;
4389;SDS011;2209;48.982;8.406;2023-06-22T02:59:56;6.67;;;4.90;;
4389;SDS011;2209;48.982;8.406;2023-06-22T03:02:18;6.47;;;5.87;;
4389;SDS011;2209;48.982;8.406;2023-06-22T03:04:42;7.50;;;4.43;;
4389;SDS011;2209;48.982;8.406;2023-06-22T03:07:04;7.27;;;5.23;;
4389;SDS011;2209;48.982;8.406;2023-06-22T03:09:28;5.93;;;4.70;;
4389;SDS011;2209;48.982;8.406;2023-06-22T03:11:50;6.70;;;4.87;;
4389;SDS011;2209;48.982;8.406;2023-06-22T03:14:12;6.03;;;5.40;;
4389;SDS011;2209;48.982;8.406;2023-06-22T03:16:34;5.07;;;4.60;;
4389;SDS011;2209;48.982;8.406;2023-06-22T03:18:57;4.67;;;4.27;;
4389;SDS011;2209;48.982;8.406;2023-06-22T03:21:19;5.40;;;4.70;;
4389;SDS011;2209;48.982;8.406;2023-06-22T03:23:41;4.60;;;4.10;;
4389;SDS011;2209;48.982;8.406;2023-06-22T03:26:04;5.83;;;5.07;;
4389;SDS011;2209;48.982;8.406;2023-06-22T03:28:26;5.50;;;4.63;;
4389;SDS011;2209;48.982;8.406;2023-06-22T03:30:48;6.37;;;5.50;;
4389;SDS011;2209;48.982;8.406;2023-06-22T03:33:10;5.20;;;4.70;;
4389;SDS011;2209;48.982;8.406;2023-06-22T03:35:32;6.17;;;5.57;;
4389;SDS011;2209;48.982;8.406;2023-06-22T03:37:54;7.13;;;5.40;;
4389;SDS011;2209;48.982;8.406;2023-06-22T03:40:16;7.73;;;5.70;;
4389;SDS011;2209;48.982;8.406;2023-06-22T03:42:40;4.67;;;4.27;;
4389;SDS011;2209;48.982;8.406;2023-06-22T03:45:02;7.00;;;4.40;;
4389;SDS011;2209;48.982;8.406;2023-06-22T03:47:25;5.57;;;5.10;;
4389;SDS011;2209;48.982;8.406;2023-06-22T03:49:47;7.50;;;5.57;;
4389;SDS011;2209;48.982;8.406;2023-06-22T03:52:09;7.40;;;5.47;;
4389;SDS011;2209;48.982;8.406;2023-06-22T03:54:31;6.70;;;5.10;;
4389;SDS011;2209;48.982;8.406;2023-06-22T03:56:53;5.80;;;5.30;;
4389;SDS011;2209;48.982;8.406;2023-06-22T03:59:18;4.93;;;3.90;;
4389;SDS011;2209;48.982;8.406;2023-06-22T04:01:40;5.40;;;4.90;;
4389;SDS011;2209;48.982;8.406;2023-06-22T04:04:02;6.23;;;5.67;;
4389;SDS011;2209;48.982;8.406;2023-06-22T04:06:24;4.83;;;4.47;;
4389;SDS011;2209;48.982;8.406;2023-06-22T04:08:46;4.67;;;4.27;;
4389;SDS011;2209;48.982;8.406;2023-06-22T04:11:11;7.80;;;4.93;;
4389;SDS011;2209;48.982;8.406;2023-06-22T04:13:33;6.30;;;4.67;;
4389;SDS011;2209;48.982;8.406;2023-06-22T04:15:56;6.20;;;5.60;;
4389;SDS011;2209;48.982;8.406;2023-06-22T04:18:18;5.00;;;4.60;;
4389;SDS011;2209;48.982;8.406;2023-06-22T04:20:40;6.13;;;5.20;;
4389;SDS011;2209;48.982;8.406;2023-06-22T04:23:02;7.20;;;4.50;;
4389;SDS011;2209;48.982;8.406;2023-06-22T04:25:24;5.70;;;4.40;;
4389;SDS011;2209;48.982;8.406;2023-06-22T04:27:46;6.30;;;5.07;;
4389;SDS011;2209;48.982;8.406;2023-06-22T04:30:09;7.20;;;5.30;;
4389;SDS011;2209;48.982;8.406;2023-06-22T04:32:34;9.40;;;5.57;;
4389;SDS011;2209;48.982;8.406;2023-06-22T04:34:57;6.03;;;5.30;;
4389;SDS011;2209;48.982;8.406;2023-06-22T04:37:20;5.27;;;4.70;;
4389;SDS011;2209;48.982;8.406;2023-06-22T04:39:43;6.50;;;5.07;;
4389;SDS011;2209;48.982;8.406;2023-06-22T04:42:05;5.30;;;4.80;;
4389;SDS011;2209;48.982;8.406;2023-06-22T04:44:28;10.00;;;5.03;;
4389;SDS011;2209;48.982;8.406;2023-06-22T04:46:50;5.87;;;5.23;;
4389;SDS011;2209;48.982;8.406;2023-06-22T04:49:15;6.90;;;5.30;;
4389;SDS011;2209;48.982;8.406;2023-06-22T04:51:39;6.53;;;5.33;;
4389;SDS011;2209;48.982;8.406;2023-06-22T04:54:02;6.60;;;5.30;;
4389;SDS011;2209;48.982;8.406;2023-06-22T04:56:26;8.80;;;5.80;;
4389;SDS011;2209;48.982;8.406;2023-06-22T04:58:48;5.33;;;4.77;;
4389;SDS011;2209;48.982;8.406;2023-06-22T05:01:11;5.70;;;5.20;;
4389;SDS011;2209;48.982;8.406;2023-06-22T05:03:34;8.50;;;5.60;;
4389;SDS011;2209;48.982;8.406;2023-06-22T05:05:58;6.87;;;5.60;;
4389;SDS011;2209;48.982;8.406;2023-06-22T05:08:20;6.40;;;5.67;;
4389;SDS011;2209;48.982;8.406;2023-06-22T05:10:46;5.43;;;4.93;;
4389;SDS011;2209;48.982;8.406;2023-06-22T05:13:08;5.70;;;5.20;;
4389;SDS011;2209;48.982;8.406;2023-06-22T05:15:30;6.67;;;5.40;;
4389;SDS011;2209;48.982;8.406;2023-06-22T05:17:57;5.80;;;5.20;;
4389;SDS011;2209;48.982;8.406;2023-06-22T05:20:19;6.90;;;5.10;;
4389;SDS011;2209;48.982;8.406;2023-06-22T05:22:43;5.40;;;4.73;;
4389;SDS011;2209;48.982;8.406;2023-06-22T05:25:07;5.53;;;5.03;;
4389;SDS011;2209;48.982;8.406;2023-06-22T05:27:30;9.47;;;6.10;;
4389;SDS011;2209;48.982;8.406;2023-06-22T05:29:52;5.43;;;4.93;;
4389;SDS011;2209;48.982;8.406;2023-06-22T05:32:14;8.33;;;6.17;;
4389;SDS011;2209;48.982;8.406;2023-06-22T05:34:36;6.60;;;5.90;;
4389;SDS011;2209;48.982;8.406;2023-06-22T05:36:58;5.80;;;4.40;;
4389;SDS011;2209;48.982;8.406;2023-06-22T05:39:22;7.67;;;6.30;;
4389;SDS011;2209;48.982;8.406;2023-06-22T05:41:44;6.73;;;4.97;;
4389;SDS011;2209;48.982;8.406;2023-06-22T05:44:07;7.13;;;6.43;;
4389;SDS011;2209;48.982;8.406;2023-06-22T05:46:29;8.73;;;5.80;;
4389;SDS011;2209;48.982;8.406;2023-06-22T05:48:51;11.40;;;5.50;;
4389;SDS011;2209;48.982;8.406;2023-06-22T05:51:13;9.60;;;5.90;;
4389;SDS011;2209;48.982;8.406;2023-06-22T05:53:35;6.10;;;5.50;;
4389;SDS011;2209;48.982;8.406;2023-06-22T05:55:58;5.50;;;4.73;;
4389;SDS011;2209;48.982;8.406;2023-06-22T05:58:20;7.90;;;5.80;;
4389;SDS011;2209;48.982;8.406;2023-06-22T06:00:43;8.67;;;5.40;;
4389;SDS011;2209;48.982;8.406;2023-06-22T06:03:05;7.00;;;5.77;;
4389;SDS011;2209;48.982;8.406;2023-06-22T06:05:27;8.90;;;5.33;;
4389;SDS011;2209;48.982;8.406;2023-06-22T06:07:49;7.10;;;6.20;;
4389;SDS011;2209;48.982;8.406;2023-06-22T06:10:12;8.20;;;5.53;;
4389;SDS011;2209;48.982;8.406;2023-06-22T06:12:35;7.87;;;5.67;;
4389;SDS011;2209;48.982;8.406;2023-06-22T06:14:57;7.20;;;5.70;;
4389;SDS011;2209;48.982;8.406;2023-06-22T06:17:20;6.40;;;5.77;;
4389;SDS011;2209;48.982;8.406;2023-06-22T06:19:42;6.10;;;5.50;;
4389;SDS011;2209;48.982;8.406;2023-06-22T06:22:04;9.37;;;6.57;;
4389;SDS011;2209;48.982;8.406;2023-06-22T06:24:26;7.80;;;5.43;;
4389;SDS011;2209;48.982;8.406;2023-06-22T06:26:48;12.07;;;6.67;;
4389;SDS011;2209;48.982;8.406;2023-06-22T06:29:12;9.73;;;5.87;;
4389;SDS011;2209;48.982;8.406;2023-06-22T06:31:37;9.60;;;6.33;;
4389;SDS011;2209;48.982;8.406;2023-06-22T06:33:59;6.63;;;5.20;;
4389;SDS011;2209;48.982;8.406;2023-06-22T06:36:21;10.07;;;6.20;;
4389;SDS011;2209;48.982;8.406;2023-06-22T06:38:43;9.37;;;6.10;;
4389;SDS011;2209;48.982;8.406;2023-06-22T06:41:07;7.97;;;6.30;;
4389;SDS011;2209;48.982;8.406;2023-06-22T06:43:29;10.43;;;6.23;;
4389;SDS011;2209;48.982;8.406;2023-06-22T06:45:52;8.30;;;6.50;;
4389;SDS011;2209;48.982;8.406;2023-06-22T06:48:15;6.10;;;5.50;;
4389;SDS011;2209;48.982;8.406;2023-06-22T06:50:38;11.33;;;5.80;;
4389;SDS011;2209;48.982;8.406;2023-06-22T06:53:00;8.53;;;6.63;;
4389;SDS011;2209;48.982;8.406;2023-06-22T06:55:22;7.10;;;5.97;;
4389;SDS011;2209;48.982;8.406;2023-06-22T06:57:45;8.17;;;5.13;;
4389;SDS011;2209;48.982;8.406;2023-06-22T07:00:09;6.93;;;6.23;;
4389;SDS011;2209;48.982;8.406;2023-06-22T07:02:35;8.37;;;5.33;;
4389;SDS011;2209;48.982;8.406;2023-06-22T07:04:57;6.13;;;5.27;;
4389;SDS011;2209;48.982;8.406;2023-06-22T07:07:19;11.73;;;5.80;;
4389;SDS011;2209;48.982;8.406;2023-06-22T07:09:41;9.40;;;6.50;;
4389;SDS011;2209;48.982;8.406;2023-06-22T07:12:04;7.00;;;6.27;;
4389;SDS011;2209;48.982;8.406;2023-06-22T07:14:27;5.33;;;4.83;;
4389;SDS011;2209;48.982;8.406;2023-06-22T07:16:49;7.87;;;6.53;;
4389;SDS011;2209;48.982;8.406;2023-06-22T07:19:12;8.40;;;6.07;;
4389;SDS011;2209;48.982;8.406;2023-06-22T07:21:35;6.13;;;5.53;;
4389;SDS011;2209;48.982;8.406;2023-06-22T07:23:57;8.30;;;6.77;;
4389;SDS011;2209;48.982;8.406;2023-06-22T07:26:19;6.70;;;5.63;;
4389;SDS011;2209;48.982;8.406;2023-06-22T07:28:41;7.97;;;5.77;;
4389;SDS011;2209;48.982;8.406;2023-06-22T07:31:03;7.03;;;6.13;;
4389;SDS011;2209;48.982;8.406;2023-06-22T07:33:25;9.63;;;6.07;;
4389;SDS011;2209;48.982;8.406;2023-06-22T07:35:49;9.17;;;6.70;;
4389;SDS011;2209;48.982;8.406;2023-06-22T07:38:12;7.17;;;5.50;;
4389;SDS011;2209;48.982;8.406;2023-06-22T07:40:35;7.33;;;6.37;;
4389;SDS011;2209;48.982;8.406;2023-06-22T07:42:58;15.27;;;5.70;;
4389;SDS011;2209;48.982;8.406;2023-06-22T07:45:20;6.63;;;5.90;;
4389;SDS011;2209;48.982;8.406;2023-06-22T07:47:42;9.30;;;6.37;;
4389;SDS011;2209;48.982;8.406;2023-06-22T07:50:05;6.97;;;6.37;;
4389;SDS011;2209;48.982;8.406;2023-06-22T07:52:28;8.70;;;5.80;;
4389;SDS011;2209;48.982;8.406;2023-06-22T07:54:51;5.77;;;5.20;;
4389;SDS011;2209;48.982;8.406;2023-06-22T07:57:13;6.20;;;5.57;;
4389;SDS011;2209;48.982;8.406;2023-06-22T07:59:36;6.97;;;5.93;;
4389;SDS011;2209;48.982;8.406;2023-06-22T08:01:58;7.40;;;5.30;;
4389;SDS011;2209;48.982;8.406;2023-06-22T08:04:20;6.30;;;5.70;;
4389;SDS011;2209;48.982;8.406;2023-06-22T08:06:42;7.97;;;5.80;;
4389;SDS011;2209;48.982;8.406;2023-06-22T08:09:06;6.60;;;6.00;;
4389;SDS011;2209;48.982;8.406;2023-06-22T08:11:28;5.50;;;5.00;;
4389;SDS011;2209;48.982;8.406;2023-06-22T08:13:50;7.97;;;6.03;;
4389;SDS011;2209;48.982;8.406;2023-06-22T08:16:12;5.80;;;5.27;;
4389;SDS011;2209;48.982;8.406;2023-06-22T08:18:35;6.10;;;5.27;;
4389;SDS011;2209;48.982;8.406;2023-06-22T08:20:57;5.67;;;5.07;;
4389;SDS011;2209;48.982;8.406;2023-06-22T08:23:19;7.03;;;6.30;;
4389;SDS011;2209;48.982;8.406;2023-06-22T08:25:42;6.77;;;6.07;;
4389;SDS011;2209;48.982;8.406;2023-06-22T08:28:04;6.17;;;5.30;;
4389;SDS011;2209;48.982;8.406;2023-06-22T08:30:27;7.07;;;5.70;;
4389;SDS011;2209;48.982;8.406;2023-06-22T08:32:49;6.37;;;5.70;;
4389;SDS011;2209;48.982;8.406;2023-06-22T08:35:11;6.53;;;5.70;;
4389;SDS011;2209;48.982;8.406;2023-06-22T08:37:33;8.30;;;6.10;;
4389;SDS011;2209;48.982;8.406;2023-06-22T08:39:56;5.93;;;5.43;;
4389;SDS011;2209;48.982;8.406;2023-06-22T08:42:19;5.63;;;5.03;;
4389;SDS011;2209;48.982;8.406;2023-06-22T08:44:42;8.90;;;5.83;;
4389;SDS011;2209;48.982;8.406;2023-06-22T08:47:04;7.00;;;5.77;;
4389;SDS011;2209;48.982;8.406;2023-06-22T08:49:26;6.80;;;5.47;;
4389;SDS011;2209;48.982;8.406;2023-06-22T08:51:48;6.80;;;5.80;;
4389;SDS011;2209;48.982;8.406;2023-06-22T08:54:12;8.70;;;5.83;;
4389;SDS011;2209;48.982;8.406;2023-06-22T08:56:35;6.10;;;5.50;;
4389;SDS011;2209;48.982;8.406;2023-06-22T08:58:58;9.07;;;6.00;;
4389;SDS011;2209;48.982;8.406;2023-06-22T09:01:21;6.17;;;5.07;;
4389;SDS011;2209;48.982;8.406;2023-06-22T09:03:43;7.90;;;6.30;;
4389;SDS011;2209;48.982;8.406;2023-06-22T09:06:14;8.90;;;5.80;;
4389;SDS011;2209;48.982;8.406;2023-06-22T09:08:36;10.10;;;6.07;;
4389;SDS011;2209;48.982;8.406;2023-06-22T09:10:58;6.97;;;5.47;;
4389;SDS011;2209;48.982;8.406;2023-06-22T09:13:20;7.70;;;5.63;;
4389;SDS011;2209;48.982;8.406;2023-06-22T09:15:44;6.93;;;5.60;;
4389;SDS011;2209;48.982;8.406;2023-06-22T09:18:08;6.80;;;5.53;;
4389;SDS011;2209;48.982;8.406;2023-06-22T09:20:31;8.80;;;5.87;;
4389;SDS011;2209;48.982;8.406;2023-06-22T09:22:54;7.90;;;6.83;;
4389;SDS011;2209;48.982;8.406;2023-06-22T09:25:16;7.80;;;6.17;;
4389;SDS011;2209;48.982;8.406;2023-06-22T09:27:40;12.50;;;8.27;;
4389;SDS011;2209;48.982;8.406;2023-06-22T09:30:03;6.30;;;5.70;;
4389;SDS011;2209;48.982;8.406;2023-06-22T09:32:28;7.10;;;5.50;;
4389;SDS011;2209;48.982;8.406;2023-06-22T09:34:50;5.67;;;4.80;;
4389;SDS011;2209;48.982;8.406;2023-06-22T09:37:12;10.03;;;6.07;;
4389;SDS011;2209;48.982;8.406;2023-06-22T09:39:35;6.80;;;6.00;;
4389;SDS011;2209;48.982;8.406;2023-06-22T09:41:57;9.30;;;6.30;;
4389;SDS011;2209;48.982;8.406;2023-06-22T09:44:20;7.00;;;6.20;;
4389;SDS011;2209;48.982;8.406;2023-06-22T09:46:42;7.13;;;5.77;;
4389;SDS011;2209;48.982;8.406;2023-06-22T09:49:06;11.00;;;6.30;;
4389;SDS011;2209;48.982;8.406;2023-06-22T09:51:28;9.50;;;6.13;;
4389;SDS011;2209;48.982;8.406;2023-06-22T09:53:50;8.40;;;6.03;;
4389;SDS011;2209;48.982;8.406;2023-06-22T09:56:12;8.80;;;5.90;;
4389;SDS011;2209;48.982;8.406;2023-06-22T09:58:35;9.53;;;6.10;;
4389;SDS011;2209;48.982;8.406;2023-06-22T10:00:57;11.83;;;6.27;;
4389;SDS011;2209;48.982;8.406;2023-06-22T10:03:19;8.27;;;5.50;;
4389;SDS011;2209;48.982;8.406;2023-06-22T10:05:43;8.27;;;6.47;;
4389;SDS011;2209;48.982;8.406;2023-06-22T10:08:05;9.60;;;5.17;;
4389;SDS011;2209;48.982;8.406;2023-06-22T10:10:28;13.27;;;7.73;;
4389;SDS011;2209;48.982;8.406;2023-06-22T10:12:55;9.17;;;6.50;;
4389;SDS011;2209;48.982;8.406;2023-06-22T10:15:18;9.00;;;6.00;;
4389;SDS011;2209;48.982;8.406;2023-06-22T10:17:41;9.17;;;6.13;;
4389;SDS011;2209;48.982;8.406;2023-06-22T10:20:03;6.63;;;6.00;;
4389;SDS011;2209;48.982;8.406;2023-06-22T10:22:34;11.67;;;6.03;;
4389;SDS011;2209;48.982;8.406;2023-06-22T10:24:56;8.53;;;6.90;;
4389;SDS011;2209;48.982;8.406;2023-06-22T10:27:18;8.87;;;6.23;;
4389;SDS011;2209;48.982;8.406;2023-06-22T10:29:41;6.50;;;5.93;;
4389;SDS011;2209;48.982;8.406;2023-06-22T10:32:03;10.30;;;5.73;;
4389;SDS011;2209;48.982;8.406;2023-06-22T10:34:26;6.80;;;6.10;;
4389;SDS011;2209;48.982;8.406;2023-06-22T10:36:48;6.47;;;5.77;;
4389;SDS011;2209;48.982;8.406;2023-06-22T10:39:11;6.93;;;5.33;;
4389;SDS011;2209;48.982;8.406;2023-06-22T10:41:33;7.43;;;5.70;;
4389;SDS011;2209;48.982;8.406;2023-06-22T10:43:56;6.47;;;5.77;;
4389;SDS011;2209;48.982;8.406;2023-06-22T10:46:18;7.03;;;6.23;;
4389;SDS011;2209;48.982;8.406;2023-06-22T10:48:40;8.53;;;7.50;;
4389;SDS011;2209;48.982;8.406;2023-06-22T10:51:02;8.03;;;6.30;;
4389;SDS011;2209;48.982;8.406;2023-06-22T10:53:24;6.67;;;6.03;;
4389;SDS011;2209;48.982;8.406;2023-06-22T10:55:47;8.70;;;6.67;;
4389;SDS011;2209;48.982;8.406;2023-06-22T10:58:09;8.93;;;6.37;;
4389;SDS011;2209;48.982;8.406;2023-06-22T11:00:31;10.13;;;5.87;;
4389;SDS011;2209;48.982;8.406;2023-06-22T11:02:53;9.40;;;7.70;;
4389;SDS011;2209;48.982;8.406;2023-06-22T11:05:15;8.80;;;7.00;;
4389;SDS011;2209;48.982;8.406;2023-06-22T11:07:38;10.63;;;7.10;;
4389;SDS011;2209;48.982;8.406;2023-06-22T11:10:02;7.10;;;6.10;;
4389;SDS011;2209;48.982;8.406;2023-06-22T11:12:26;7.53;;;6.10;;
4389;SDS011;2209;48.982;8.406;2023-06-22T11:14:48;13.17;;;6.73;;
4389;SDS011;2209;48.982;8.406;2023-06-22T11:17:12;9.67;;;6.47;;
4389;SDS011;2209;48.982;8.406;2023-06-22T11:19:34;9.50;;;6.70;;
4389;SDS011;2209;48.982;8.406;2023-06-22T11:21:56;8.93;;;7.07;;
4389;SDS011;2209;48.982;8.406;2023-06-22T11:24:18;9.17;;;7.53;;
4389;SDS011;2209;48.982;8.406;2023-06-22T11:26:41;9.60;;;7.03;;
4389;SDS011;2209;48.982;8.406;2023-06-22T11:29:04;11.43;;;5.90;;
4389;SDS011;2209;48.982;8.406;2023-06-22T11:31:26;10.17;;;7.20;;
4389;SDS011;2209;48.982;8.406;2023-06-22T11:33:48;6.50;;;5.90;;
4389;SDS011;2209;48.982;8.406;2023-06-22T11:36:10;10.17;;;5.73;;
4389;SDS011;2209;48.982;8.406;2023-06-22T11:38:32;7.40;;;6.63;;
4389;SDS011;2209;48.982;8.406;2023-06-22T11:40:57;9.03;;;6.13;;
4389;SDS011;2209;48.982;8.406;2023-06-22T11:43:19;7.33;;;6.60;;
4389;SDS011;2209;48.982;8.406;2023-06-22T11:45:42;8.80;;;6.53;;
4389;SDS011;2209;48.982;8.406;2023-06-22T11:48:05;9.57;;;6.73;;
4389;SDS011;2209;48.982;8.406;2023-06-22T11:50:27;10.47;;;5.70;;
4389;SDS011;2209;48.982;8.406;2023-06-22T11:52:50;9.60;;;6.77;;
4389;SDS011;2209;48.982;8.406;2023-06-22T11:55:13;7.70;;;6.20;;
4389;SDS011;2209;48.982;8.406;2023-06-22T11:57:36;8.47;;;6.07;;
4389;SDS011;2209;48.982;8.406;2023-06-22T12:00:00;6.77;;;6.17;;
4389;SDS011;2209;48.982;8.406;2023-06-22T12:02:27;10.57;;;7.27;;
4389;SDS011;2209;48.982;8.406;2023-06-22T12:04:49;7.97;;;5.93;;
4389;SDS011;2209;48.982;8.406;2023-06-22T12:07:12;9.10;;;6.53;;
4389;SDS011;2209;48.982;8.406;2023-06-22T12:09:35;8.20;;;6.67;;
4389;SDS011;2209;48.982;8.406;2023-06-22T12:11:57;7.40;;;6.47;;
4389;SDS011;2209;48.982;8.406;2023-06-22T12:14:19;8.63;;;6.37;;
4389;SDS011;2209;48.982;8.406;2023-06-22T12:16:41;8.93;;;8.03;;
4389;SDS011;2209;48.982;8.406;2023-06-22T12:19:05;6.70;;;6.00;;
4389;SDS011;2209;48.982;8.406;2023-06-22T12:21:27;9.50;;;6.70;;
4389;SDS011;2209;48.982;8.406;2023-06-22T12:23:49;11.50;;;7.67;;
4389;SDS011;2209;48.982;8.406;2023-06-22T12:26:11;7.47;;;6.43;;
4389;SDS011;2209;48.982;8.406;2023-06-22T12:28:33;7.93;;;6.70;;
4389;SDS011;2209;48.982;8.406;2023-06-22T12:30:56;6.50;;;5.80;;
4389;SDS011;2209;48.982;8.406;2023-06-22T12:33:18;8.50;;;6.73;;
4389;SDS011;2209;48.982;8.406;2023-06-22T12:35:41;8.23;;;6.80;;
4389;SDS011;2209;48.982;8.406;2023-06-22T12:38:03;7.77;;;6.97;;
4389;SDS011;2209;48.982;8.406;2023-06-22T12:40:26;10.20;;;7.03;;
4389;SDS011;2209;48.982;8.406;2023-06-22T12:42:48;6.77;;;6.00;;
4389;SDS011;2209;48.982;8.406;2023-06-22T12:45:14;9.47;;;7.53;;
4389;SDS011;2209;48.982;8.406;2023-06-22T12:47:36;9.70;;;6.70;;
4389;SDS011;2209;48.982;8.406;2023-06-22T12:49:58;10.23;;;7.10;;
4389;SDS011;2209;48.982;8.406;2023-06-22T12:52:21;7.23;;;6.20;;
4389;SDS011;2209;48.982;8.406;2023-06-22T12:54:43;7.70;;;6.40;;
4389;SDS011;2209;48.982;8.406;2023-06-22T12:57:06;8.33;;;7.43;;
4389;SDS011;2209;48.982;8.406;2023-06-22T12:59:28;7.57;;;6.67;;
4389;SDS011;2209;48.982;8.406;2023-06-22T13:01:50;13.10;;;6.73;;
4389;SDS011;2209;48.982;8.406;2023-06-22T13:04:12;7.57;;;6.63;;
4389;SDS011;2209;48.982;8.406;2023-06-22T13:06:35;8.03;;;6.33;;
4389;SDS011;2209;48.982;8.406;2023-06-22T13:08:58;10.33;;;7.20;;
4389;SDS011;2209;48.982;8.406;2023-06-22T13:11:20;10.60;;;7.37;;
4389;SDS011;2209;48.982;8.406;2023-06-22T13:13:43;9.80;;;7.50;;
4389;SDS011;2209;48.982;8.406;2023-06-22T13:16:06;8.47;;;6.60;;
4389;SDS011;2209;48.982;8.406;2023-06-22T13:18:28;7.53;;;6.93;;
4389;SDS011;2209;48.982;8.406;2023-06-22T13:20:50;9.97;;;7.53;;
4389;SDS011;2209;48.982;8.406;2023-06-22T13:23:14;7.83;;;7.03;;
4389;SDS011;2209;48.982;8.406;2023-06-22T13:25:38;15.53;;;8.70;;
4389;SDS011;2209;48.982;8.406;2023-06-22T13:28:00;9.20;;;7.20;;
4389;SDS011;2209;48.982;8.406;2023-06-22T13:30:22;14.30;;;8.23;;
4389;SDS011;2209;48.982;8.406;2023-06-22T13:32:44;12.37;;;8.10;;
4389;SDS011;2209;48.982;8.406;2023-06-22T13:35:07;9.43;;;8.03;;
4389;SDS011;2209;48.982;8.406;2023-06-22T13:37:30;13.20;;;8.53;;
4389;SDS011;2209;48.982;8.406;2023-06-22T13:39:52;10.60;;;7.67;;
4389;SDS011;2209;48.982;8.406;2023-06-22T13:42:17;8.83;;;6.60;;
4389;SDS011;2209;48.982;8.406;2023-06-22T13:44:39;10.63;;;8.20;;
4389;SDS011;2209;48.982;8.406;2023-06-22T13:47:02;12.20;;;7.47;;
4389;SDS011;2209;48.982;8.406;2023-06-22T13:49:25;12.87;;;8.03;;
4389;SDS011;2209;48.982;8.406;2023-06-22T13:51:47;8.63;;;7.17;;
4389;SDS011;2209;48.982;8.406;2023-06-22T13:54:09;10.53;;;8.50;;
4389;SDS011;2209;48.982;8.406;2023-06-22T13:56:32;9.70;;;7.60;;
4389;SDS011;2209;48.982;8.406;2023-06-22T13:58:55;9.27;;;8.20;;
4389;SDS011;2209;48.982;8.406;2023-06-22T14:01:17;11.87;;;8.30;;
4389;SDS011;2209;48.982;8.406;2023-06-22T14:03:39;8.53;;;7.60;;
4389;SDS011;2209;48.982;8.406;2023-06-22T14:06:02;9.80;;;6.87;;
4389;SDS011;2209;48.982;8.406;2023-06-22T14:08:24;17.17;;;8.60;;
4389;SDS011;2209;48.982;8.406;2023-06-22T14:10:46;9.60;;;7.50;;
4389;SDS011;2209;48.982;8.406;2023-06-22T14:13:08;14.13;;;7.37;;
4389;SDS011;2209;48.982;8.406;2023-06-22T14:15:32;10.67;;;7.00;;
4389;SDS011;2209;48.982;8.406;2023-06-22T14:17:54;8.90;;;7.33;;
4389;SDS011;2209;48.982;8.406;2023-06-22T14:20:16;11.17;;;8.17;;
4389;SDS011;2209;48.982;8.406;2023-06-22T14:22:38;9.20;;;7.77;;
4389;SDS011;2209;48.982;8.406;2023-06-22T14:25:00;9.83;;;7.83;;
4389;SDS011;2209;48.982;8.406;2023-06-22T14:27:22;9.43;;;7.03;;
4389;SDS011;2209;48.982;8.406;2023-06-22T14:29:45;9.50;;;7.50;;
4389;SDS011;2209;48.982;8.406;2023-06-22T14:32:08;11.17;;;7.53;;
4389;SDS011;2209;48.982;8.406;2023-06-22T14:34:30;9.67;;;8.60;;
4389;SDS011;2209;48.982;8.406;2023-06-22T14:36:52;13.53;;;7.80;;
4389;SDS011;2209;48.982;8.406;2023-06-22T14:39:14;9.03;;;6.67;;
4389;SDS011;2209;48.982;8.406;2023-06-22T14:41:37;12.30;;;6.93;;
4389;SDS011;2209;48.982;8.406;2023-06-22T14:43:59;10.20;;;7.77;;
4389;SDS011;2209;48.982;8.406;2023-06-22T14:46:21;10.70;;;8.33;;